This is the latest recevied weather packets stored in our database for station/object N6DZK. If no packets are shown the sender has not sent any weather packets the latest 10 day(s).
| Time | Temp. | Humidity | Pressure | Rain* | Wind** | Luminosity | Snow |
|---|---|---|---|---|---|---|---|
| 1777478689 | 18.33° C | 59% | 1019.3 hPa | 0 mm | - | 497 W/m² | - |
| 1777478385 | 19.44° C | 61% | 1019.4 hPa | 0 mm | - | 451 W/m² | - |
| 1777478082 | 18.33° C | 64% | 1019.6 hPa | 0 mm | - | 407 W/m² | - |
| 1777477778 | 17.22° C | 67% | 1019.6 hPa | 0 mm | - | 412 W/m² | - |
| 1777477474 | 17.78° C | 66% | 1019.4 hPa | 0 mm | - | 364 W/m² | - |
| 1777477171 | 17.22° C | 67% | 1019.4 hPa | 0 mm | - | 332 W/m² | - |
| 1777476867 | 16.67° C | 71% | 1019.6 hPa | 0 mm | - | 309 W/m² | - |
| 1777476566 | 16.11° C | 71% | 1019.5 hPa | 0 mm | - | 305 W/m² | - |
| 1777476262 | 15.56° C | 73% | 1019.6 hPa | 0 mm | - | 296 W/m² | - |
| 1777475957 | 15.56° C | 73% | 1019.7 hPa | 0 mm | - | 277 W/m² | - |
| 1777475654 | 15° C | 74% | 1019.7 hPa | 0 mm | - | 248 W/m² | - |
| 1777475350 | 15° C | 76% | 1019.6 hPa | 0 mm | - | 215 W/m² | - |
| 1777475045 | 15° C | 80% | 1019.7 hPa | 0 mm | - | 196 W/m² | - |
| 1777474741 | 13.33° C | 93% | 1019.8 hPa | 0 mm | - | 176 W/m² | - |
| 1777474438 | 11.67° C | 97% | 1019.8 hPa | 0 mm | - | 163 W/m² | - |
| 1777474134 | 11.11° C | 97% | 1019.8 hPa | 0 mm | - | 157 W/m² | - |
| 1777473833 | 10.56° C | 98% | 1019.8 hPa | 0 mm | - | 115 W/m² | - |
| 1777473529 | 10.56° C | 98% | 1019.7 hPa | 0 mm | - | 110 W/m² | - |
| 1777473224 | 10° C | 98% | 1019.8 hPa | 0 mm | - | 102 W/m² | - |
| 1777472922 | 10° C | 98% | 1019.8 hPa | 0 mm | - | 93 W/m² | - |
| 1777472618 | 9.44° C | 98% | 1019.8 hPa | 0 mm | - | 95 W/m² | - |
| 1777472315 | 9.44° C | 98% | 1019.8 hPa | 0 mm | - | 83 W/m² | - |
| 1777472012 | 8.89° C | 98% | 1019.5 hPa | 0 mm | - | 64 W/m² | - |
| 1777471707 | 8.89° C | 98% | 1019.8 hPa | 0 mm | - | 59 W/m² | - |
| 1777471404 | 8.89° C | 98% | 1019.8 hPa | 0 mm | - | 53 W/m² | - |
* Rain latest hour (hover to see other rain measurements)
** Current wind speed in m/s (hover to see current wind gust speed)